Time;durP1;ratioP1;P1;durP2;ratioP2;P2;SDS_P1;SDS_P2;PMS_P1;PMS_P2;Temp;Humidity;BMP_temperature;BMP_pressure;BME280_temperature;BME280_humidity;BME280_pressure;Samples;Min_cycle;Max_cycle;Signal;HPM_P1;HPM_P2
2024/04/02 00:00:21;;;;;;;11.73;1.55;;;9.60;99.90;;;;;;6200432;28;20069;-80
2024/04/02 00:03:22;;;;;;;14.00;2.05;;;9.50;99.90;;;;;;6218463;28;20107;-79
2024/04/02 00:06:22;;;;;;;13.43;1.95;;;9.60;99.90;;;;;;6218458;28;20058;-79
2024/04/02 00:09:23;;;;;;;13.85;2.28;;;9.50;99.90;;;;;;6218019;28;20050;-79
2024/04/02 00:12:24;;;;;;;23.33;2.45;;;9.60;99.90;;;;;;6218610;28;20080;-80
2024/04/02 00:15:24;;;;;;;13.88;2.53;;;9.50;99.90;;;;;;6208731;28;20062;-79
2024/04/02 00:18:25;;;;;;;11.30;1.90;;;9.50;99.90;;;;;;6216517;28;20069;-79
2024/04/02 00:21:26;;;;;;;20.05;2.50;;;9.50;99.90;;;;;;6218496;28;20414;-78
2024/04/02 00:24:26;;;;;;;19.73;2.55;;;9.50;99.90;;;;;;6218077;28;20065;-79
2024/04/02 00:27:27;;;;;;;14.82;2.00;;;9.50;99.90;;;;;;6218279;28;20054;-79
2024/04/02 00:30:28;;;;;;;13.85;1.75;;;9.40;99.90;;;;;;6213277;28;20072;-79
2024/04/02 00:33:29;;;;;;;14.32;2.30;;;9.40;99.90;;;;;;6217695;28;20061;-79
2024/04/02 00:36:29;;;;;;;15.73;1.90;;;9.40;99.90;;;;;;6218002;28;20060;-79
2024/04/02 00:39:30;;;;;;;13.43;2.15;;;9.50;99.90;;;;;;6218281;28;20092;-79
2024/04/02 00:42:30;;;;;;;14.43;1.77;;;9.40;99.90;;;;;;6218001;28;20065;-80
2024/04/02 00:45:31;;;;;;;14.52;1.92;;;9.40;99.90;;;;;;6199776;28;20426;-80
2024/04/02 00:48:32;;;;;;;14.10;2.03;;;9.30;99.90;;;;;;6201504;28;20058;-80
2024/04/02 00:51:32;;;;;;;19.80;2.30;;;9.30;99.90;;;;;;6217860;28;20065;-79
2024/04/02 00:54:33;;;;;;;13.40;2.03;;;9.30;99.90;;;;;;6218082;28;20092;-79
2024/04/02 00:57:34;;;;;;;14.50;2.08;;;9.30;99.90;;;;;;6217721;28;20639;-80
2024/04/02 01:00:35;;;;;;;12.32;1.85;;;9.20;99.90;;;;;;6203292;28;20136;-79
2024/04/02 01:03:36;;;;;;;16.02;2.20;;;9.20;99.90;;;;;;6201379;28;20050;-80
2024/04/02 01:06:37;;;;;;;14.35;1.83;;;9.20;99.90;;;;;;6217587;28;20068;-80
2024/04/02 01:09:37;;;;;;;11.82;2.05;;;9.30;99.90;;;;;;6217464;28;20061;-79
2024/04/02 01:12:38;;;;;;;11.38;1.95;;;9.30;99.90;;;;;;6219110;28;20054;-79
2024/04/02 01:15:39;;;;;;;12.95;1.90;;;9.40;99.90;;;;;;6208057;28;20100;-79
2024/04/02 01:18:40;;;;;;;12.90;1.83;;;9.50;99.90;;;;;;6215740;28;20065;-79
2024/04/02 01:21:40;;;;;;;13.55;2.00;;;9.60;99.90;;;;;;6220474;28;20486;-79
2024/04/02 01:24:41;;;;;;;20.40;2.15;;;9.70;99.90;;;;;;6222723;28;20057;-79
2024/04/02 01:27:41;;;;;;;13.68;2.20;;;9.70;99.90;;;;;;6222067;28;20100;-79
2024/04/02 01:30:42;;;;;;;10.55;1.63;;;9.70;99.90;;;;;;6221754;28;20061;-79
2024/04/02 01:33:43;;;;;;;9.30;1.63;;;9.70;99.90;;;;;;6222383;28;20046;-79
2024/04/02 01:36:43;;;;;;;8.93;1.58;;;9.70;99.90;;;;;;6222390;28;20453;-78
2024/04/02 01:39:44;;;;;;;9.25;1.70;;;9.70;99.90;;;;;;6222854;28;20084;-78
2024/04/02 01:42:45;;;;;;;14.23;2.03;;;9.70;99.90;;;;;;6222316;28;20049;-80
2024/04/02 01:45:45;;;;;;;11.70;2.03;;;9.70;99.90;;;;;;6208038;28;20097;-79
2024/04/02 01:48:46;;;;;;;13.90;1.63;;;9.60;99.90;;;;;;6197719;28;20054;-80
2024/04/02 01:51:47;;;;;;;8.43;1.77;;;9.60;99.90;;;;;;6221230;28;20524;-80
2024/04/02 01:54:47;;;;;;;9.45;1.40;;;9.60;99.90;;;;;;6221856;28;20104;-80
2024/04/02 01:57:48;;;;;;;10.32;1.23;;;9.40;99.90;;;;;;6205327;28;20054;-79
2024/04/02 02:00:48;;;;;;;7.35;1.27;;;9.40;99.90;;;;;;6209531;28;20521;-80
2024/04/02 02:03:49;;;;;;;7.28;1.10;;;9.40;99.90;;;;;;6221485;28;20054;-80
2024/04/02 02:06:50;;;;;;;9.82;1.13;;;9.30;99.90;;;;;;6220047;28;20099;-80
2024/04/02 02:09:50;;;;;;;7.88;1.10;;;9.20;99.90;;;;;;6221636;28;20116;-81
2024/04/02 02:12:51;;;;;;;9.15;1.50;;;9.20;99.90;;;;;;6205126;28;20058;-81
2024/04/02 02:15:52;;;;;;;14.45;1.92;;;9.20;99.90;;;;;;6207933;28;20064;-80
2024/04/02 02:18:52;;;;;;;11.93;1.60;;;9.20;99.90;;;;;;6210139;28;20140;-80
2024/04/02 02:21:53;;;;;;;12.70;1.90;;;9.20;99.90;;;;;;6221390;28;20058;-80
2024/04/02 02:24:54;;;;;;;9.70;1.73;;;9.10;99.90;;;;;;6221001;28;20418;-81
2024/04/02 02:27:55;;;;;;;12.50;2.22;;;9.10;99.90;;;;;;6220807;28;20054;-80
2024/04/02 02:30:55;;;;;;;16.23;2.55;;;9.20;99.90;;;;;;6204518;28;20057;-80
2024/04/02 02:33:56;;;;;;;12.90;2.08;;;9.20;99.90;;;;;;6196762;28;20058;-82
2024/04/02 02:36:57;;;;;;;13.63;2.10;;;9.30;99.90;;;;;;6220790;28;20069;-80
2024/04/02 02:39:57;;;;;;;18.58;2.45;;;9.30;99.90;;;;;;6221251;28;20167;-81
2024/04/02 02:42:58;;;;;;;13.43;2.20;;;9.30;99.90;;;;;;6220543;28;20053;-81
2024/04/02 02:45:59;;;;;;;13.02;2.45;;;9.40;99.90;;;;;;6207550;28;20493;-80
2024/04/02 02:48:59;;;;;;;16.58;2.17;;;9.40;99.90;;;;;;6196217;28;20121;-81
2024/04/02 02:52:00;;;;;;;16.17;2.60;;;9.50;99.90;;;;;;6220047;28;20061;-82
2024/04/02 02:55:00;;;;;;;11.95;2.58;;;9.50;99.90;;;;;;6203952;28;20057;-81
2024/04/02 02:58:01;;;;;;;16.80;2.35;;;9.50;99.90;;;;;;6219987;28;20050;-81
2024/04/02 03:01:02;;;;;;;16.85;2.03;;;9.40;99.90;;;;;;6206317;28;20061;-81
2024/04/02 03:04:02;;;;;;;11.48;2.22;;;9.40;99.90;;;;;;6196083;28;20058;-81
2024/04/02 03:07:03;;;;;;;14.30;1.90;;;9.40;99.90;;;;;;6217751;28;20131;-82
2024/04/02 03:10:04;;;;;;;13.40;2.08;;;9.40;99.90;;;;;;6220399;28;20116;-82
2024/04/02 03:13:08;;;;;;;8.05;1.35;;;9.30;99.90;;;;;;6219763;28;20538;-82
2024/04/02 03:16:08;;;;;;;6.18;1.50;;;9.30;99.90;;;;;;6194248;28;20092;-81
2024/04/02 03:19:09;;;;;;;8.85;1.45;;;9.30;99.90;;;;;;6210996;28;20062;-81
2024/04/02 03:22:09;;;;;;;6.88;1.25;;;9.30;99.90;;;;;;6220169;28;20057;-80
2024/04/02 03:25:10;;;;;;;5.78;1.10;;;9.20;99.90;;;;;;6203489;28;20074;-81
2024/04/02 03:28:16;;;;;;;5.80;1.00;;;9.10;99.90;;;;;;6202794;28;20516;-85
2024/04/02 03:31:22;;;;;;;6.88;1.48;;;9.10;99.90;;;;;;6219997;28;20101;-81
2024/04/02 03:34:23;;;;;;;7.10;1.20;;;9.10;99.90;;;;;;6219853;28;20501;-80
2024/04/02 03:37:24;;;;;;;9.63;1.52;;;9.00;99.90;;;;;;6203188;28;20062;-80
2024/04/02 03:40:25;;;;;;;9.30;1.20;;;9.00;99.90;;;;;;6219235;28;20085;-81
2024/04/02 03:43:26;;;;;;;5.70;1.20;;;9.00;99.90;;;;;;6200972;28;20061;-84
2024/04/02 03:46:27;;;;;;;15.02;2.10;;;9.00;99.90;;;;;;6191173;23;20743;-77
2024/04/02 03:49:27;;;;;;;9.93;1.20;;;9.00;99.90;;;;;;6194515;28;20719;-77
2024/04/02 03:52:28;;;;;;;6.43;1.20;;;8.90;99.90;;;;;;6195005;28;20137;-77
2024/04/02 03:55:29;;;;;;;10.10;1.55;;;9.00;99.90;;;;;;6178150;28;20076;-77
2024/04/02 03:58:30;;;;;;;6.28;1.23;;;9.00;99.90;;;;;;6178078;28;20065;-77
2024/04/02 04:01:31;;;;;;;10.75;1.40;;;8.90;99.90;;;;;;6176140;28;20109;-77
2024/04/02 04:04:32;;;;;;;7.80;1.25;;;8.90;99.90;;;;;;6178559;28;20062;-77
2024/04/02 04:07:32;;;;;;;9.63;1.40;;;8.90;99.90;;;;;;6176470;28;20501;-77
2024/04/02 04:10:33;;;;;;;8.95;1.45;;;8.90;99.90;;;;;;6177840;28;20104;-77
2024/04/02 04:13:34;;;;;;;6.63;1.38;;;8.90;99.90;;;;;;6188880;28;20694;-78
2024/04/02 04:16:35;;;;;;;5.53;1.08;;;8.90;99.90;;;;;;6194623;28;20050;-77
2024/04/02 04:19:35;;;;;;;7.30;1.63;;;8.80;99.90;;;;;;6194281;28;20050;-77
2024/04/02 04:22:36;;;;;;;11.15;1.27;;;8.80;99.90;;;;;;6194275;28;20054;-77
2024/04/02 04:25:37;;;;;;;6.68;1.42;;;8.80;99.90;;;;;;6193753;28;20050;-77
2024/04/02 04:28:37;;;;;;;13.57;1.75;;;8.80;99.90;;;;;;6184326;28;20065;-77
2024/04/02 04:31:38;;;;;;;11.38;2.00;;;8.80;99.90;;;;;;6194450;28;20112;-77
2024/04/02 04:34:39;;;;;;;11.85;1.75;;;8.90;99.90;;;;;;6195705;28;20057;-77
2024/04/02 04:37:39;;;;;;;16.95;2.53;;;9.00;99.90;;;;;;6196258;28;20077;-77
2024/04/02 04:40:40;;;;;;;21.67;2.78;;;9.00;99.90;;;;;;6195975;28;20395;-77
2024/04/02 04:43:40;;;;;;;15.60;2.78;;;9.00;99.90;;;;;;6193224;28;20050;-78
2024/04/02 04:46:41;;;;;;;21.90;2.58;;;9.10;99.90;;;;;;6177404;28;20097;-78
2024/04/02 04:49:42;;;;;;;18.45;3.03;;;9.10;99.90;;;;;;6193335;28;20108;-78
2024/04/02 04:52:43;;;;;;;16.45;2.70;;;9.20;99.90;;;;;;6177297;28;20058;-78
2024/04/02 04:55:43;;;;;;;20.58;3.30;;;9.30;99.90;;;;;;6176755;28;20065;-78
2024/04/02 04:58:44;;;;;;;18.85;2.53;;;9.30;99.90;;;;;;6188613;28;20050;-78
2024/04/02 05:01:45;;;;;;;19.92;2.50;;;9.30;99.90;;;;;;6194023;28;20058;-78
2024/04/02 05:04:45;;;;;;;15.20;2.20;;;9.30;99.90;;;;;;6193622;28;20524;-78
2024/04/02 05:07:46;;;;;;;20.17;2.20;;;9.30;99.90;;;;;;6191632;28;20526;-78
2024/04/02 05:10:47;;;;;;;16.55;2.28;;;9.30;99.90;;;;;;6193176;28;20065;-78
2024/04/02 05:13:47;;;;;;;11.48;2.00;;;9.30;99.90;;;;;;6187858;28;20061;-78
2024/04/02 05:16:48;;;;;;;14.40;2.10;;;9.30;99.90;;;;;;6193333;28;20105;-78
2024/04/02 05:19:50;;;;;;;13.65;2.20;;;9.30;99.90;;;;;;6193051;28;20058;-79
2024/04/02 05:22:51;;;;;;;20.42;2.45;;;9.30;99.90;;;;;;6193468;28;20066;-78
2024/04/02 05:25:52;;;;;;;17.35;2.25;;;9.30;99.90;;;;;;6177433;28;20109;-78
2024/04/02 05:28:52;;;;;;;13.32;2.20;;;9.40;99.90;;;;;;6188113;28;20529;-78
2024/04/02 05:31:53;;;;;;;14.85;2.25;;;9.30;99.90;;;;;;6193384;28;20058;-78
2024/04/02 05:34:53;;;;;;;23.58;2.50;;;9.40;99.90;;;;;;6193586;28;20159;-78
2024/04/02 05:37:54;;;;;;;12.02;2.22;;;9.40;99.90;;;;;;6193137;28;20454;-79
2024/04/02 05:40:55;;;;;;;11.60;2.10;;;9.40;99.90;;;;;;6193276;28;20065;-78
2024/04/02 05:43:55;;;;;;;24.65;2.63;;;9.50;99.90;;;;;;6187785;28;20470;-78
2024/04/02 05:46:56;;;;;;;17.52;2.42;;;9.50;99.90;;;;;;6193107;28;20054;-78
2024/04/02 05:49:57;;;;;;;18.50;2.60;;;9.50;99.90;;;;;;6192582;28;20073;-78
2024/04/02 05:52:57;;;;;;;13.18;2.25;;;9.50;99.90;;;;;;6193014;28;20061;-78
2024/04/02 05:55:59;;;;;;;15.02;2.30;;;9.50;99.90;;;;;;6192922;28;20065;-78
2024/04/02 05:59:00;;;;;;;18.10;2.10;;;9.50;99.90;;;;;;6187506;28;20050;-79
2024/04/02 06:02:01;;;;;;;18.25;2.97;;;9.50;99.90;;;;;;6192949;28;20560;-79
2024/04/02 06:05:01;;;;;;;15.35;2.20;;;9.50;99.90;;;;;;6192857;28;20055;-79
2024/04/02 06:08:02;;;;;;;16.38;2.17;;;9.50;99.90;;;;;;6193825;28;20622;-79
2024/04/02 06:11:04;;;;;;;17.40;2.38;;;9.50;99.90;;;;;;6196938;28;20117;-79
2024/04/02 06:14:05;;;;;;;14.98;2.10;;;9.60;99.90;;;;;;6182985;28;20062;-79
2024/04/02 06:17:05;;;;;;;13.20;2.22;;;9.60;99.90;;;;;;6180906;28;20055;-80
2024/04/02 06:20:06;;;;;;;14.00;2.13;;;9.60;99.90;;;;;;6180835;28;20105;-79
2024/04/02 06:23:07;;;;;;;15.48;2.35;;;9.70;99.90;;;;;;6198141;28;20065;-80
2024/04/02 06:26:08;;;;;;;16.65;2.20;;;9.70;99.90;;;;;;6198858;28;20058;-80
2024/04/02 06:29:08;;;;;;;14.95;2.10;;;9.70;99.90;;;;;;6180200;28;20065;-79
2024/04/02 06:32:09;;;;;;;13.98;1.80;;;9.70;99.90;;;;;;6197126;28;20462;-79
2024/04/02 06:35:10;;;;;;;8.48;1.58;;;9.70;99.90;;;;;;6196733;28;20064;-79
2024/04/02 06:38:10;;;;;;;10.18;1.77;;;9.80;99.90;;;;;;6196593;28;20070;-80
2024/04/02 06:41:11;;;;;;;9.02;1.70;;;9.90;99.90;;;;;;6196497;28;20418;-80
2024/04/02 06:44:12;;;;;;;7.18;1.40;;;9.90;99.90;;;;;;6186029;28;20058;-79
2024/04/02 06:47:13;;;;;;;9.90;1.95;;;10.00;99.90;;;;;;6196142;28;20062;-79
2024/04/02 06:50:14;;;;;;;6.90;1.52;;;10.00;99.90;;;;;;6179795;28;20498;-79
2024/04/02 06:53:15;;;;;;;5.22;1.08;;;10.00;99.90;;;;;;6196411;28;20057;-79
2024/04/02 06:56:15;;;;;;;11.20;1.48;;;10.00;99.90;;;;;;6196301;28;20062;-80
2024/04/02 06:59:16;;;;;;;7.00;1.17;;;9.90;99.90;;;;;;6185916;28;20509;-80
2024/04/02 07:02:17;;;;;;;6.05;1.17;;;9.90;99.90;;;;;;6195639;28;20054;-80
2024/04/02 07:05:17;;;;;;;4.13;0.90;;;10.00;99.90;;;;;;6195358;28;20050;-80
2024/04/02 07:08:18;;;;;;;4.68;1.00;;;10.00;99.90;;;;;;6193465;28;20112;-79
2024/04/02 07:11:18;;;;;;;4.30;0.90;;;10.10;99.90;;;;;;6195042;28;20054;-79
2024/04/02 07:14:19;;;;;;;3.47;0.80;;;10.10;99.90;;;;;;6190250;28;20058;-79
2024/04/02 07:17:20;;;;;;;6.43;1.13;;;10.20;99.90;;;;;;6194862;28;20062;-78
2024/04/02 07:20:20;;;;;;;4.85;1.02;;;10.30;99.90;;;;;;6194234;28;20157;-80
2024/04/02 07:23:21;;;;;;;4.47;0.95;;;10.40;99.90;;;;;;6178976;28;20058;-79
2024/04/02 07:26:22;;;;;;;8.55;1.15;;;10.30;99.90;;;;;;6195042;28;20062;-79
2024/04/02 07:29:22;;;;;;;5.00;1.00;;;10.40;99.90;;;;;;6189270;28;20070;-77
2024/04/02 07:32:23;;;;;;;4.40;0.95;;;10.40;99.90;;;;;;6194598;28;20391;-78
2024/04/02 07:35:24;;;;;;;5.28;1.00;;;10.30;99.90;;;;;;6194774;28;20054;-77
2024/04/02 07:38:24;;;;;;;4.00;0.90;;;10.20;99.90;;;;;;6195069;28;20065;-77
2024/04/02 07:41:25;;;;;;;3.42;1.00;;;10.10;99.90;;;;;;6194693;28;20615;-77
2024/04/02 07:44:26;;;;;;;4.97;1.10;;;10.00;99.90;;;;;;6184661;28;20066;-78
2024/04/02 07:47:27;;;;;;;4.38;1.02;;;9.90;99.90;;;;;;6194719;28;20069;-77
2024/04/02 07:50:27;;;;;;;4.20;1.00;;;9.90;99.90;;;;;;6194759;28;20054;-78
2024/04/02 07:53:28;;;;;;;4.68;1.23;;;9.90;99.90;;;;;;6194759;28;20057;-77
2024/04/02 07:56:29;;;;;;;3.25;1.17;;;10.00;99.90;;;;;;6178201;28;20062;-78
2024/04/02 07:59:29;;;;;;;4.13;0.90;;;10.00;99.90;;;;;;6188690;28;20058;-78
2024/04/02 08:02:30;;;;;;;5.07;1.25;;;10.20;99.90;;;;;;6194641;28;20105;-78
2024/04/02 08:05:30;;;;;;;6.88;1.20;;;10.30;99.90;;;;;;6194369;28;20116;-78
2024/04/02 08:08:31;;;;;;;5.70;1.20;;;10.30;99.90;;;;;;6192358;28;20108;-78
2024/04/02 08:11:32;;;;;;;3.67;1.13;;;10.50;99.90;;;;;;6194068;28;20104;-78
2024/04/02 08:14:33;;;;;;;4.03;1.08;;;10.60;99.90;;;;;;6189053;28;20066;-78
2024/04/02 08:17:34;;;;;;;5.45;1.20;;;10.70;99.90;;;;;;6193925;28;20054;-78
2024/04/02 08:20:35;;;;;;;4.53;1.30;;;10.80;99.90;;;;;;6193743;28;20061;-77
2024/04/02 08:23:35;;;;;;;3.17;1.20;;;10.80;99.90;;;;;;6194224;28;20061;-77
2024/04/02 08:26:36;;;;;;;4.30;1.23;;;10.90;99.90;;;;;;6193748;28;20065;-78
2024/04/02 08:29:37;;;;;;;4.45;1.08;;;11.50;99.90;;;;;;6176060;28;20713;-78
2024/04/02 08:32:38;;;;;;;5.18;1.00;;;12.70;97.80;;;;;;6177452;28;20080;-79
2024/04/02 08:35:38;;;;;;;3.45;1.10;;;13.50;81.00;;;;;;6193493;28;20069;-79
2024/04/02 08:38:39;;;;;;;5.75;0.93;;;14.20;43.20;;;;;;6177400;28;20089;-77
2024/04/02 08:41:40;;;;;;;3.72;1.20;;;14.10;50.90;;;;;;6193663;28;20161;-77
2024/04/02 08:44:41;;;;;;;3.45;1.08;;;13.80;61.40;;;;;;6192873;28;20089;-79
2024/04/02 08:47:42;;;;;;;4.20;1.13;;;13.80;57.50;;;;;;6193992;28;20061;-78
2024/04/02 08:50:42;;;;;;;4.55;1.00;;;13.40;52.10;;;;;;6193461;28;20070;-78
2024/04/02 08:53:43;;;;;;;5.63;1.38;;;13.70;64.00;;;;;;6193662;28;20058;-78
2024/04/02 08:56:43;;;;;;;2.92;1.00;;;14.30;31.60;;;;;;6177243;28;20058;-79
2024/04/02 08:59:44;;;;;;;3.83;1.20;;;14.50;21.80;;;;;;6174629;28;20054;-78
2024/04/02 09:02:45;;;;;;;3.60;0.95;;;15.20;42.20;;;;;;6193393;28;20137;-79
2024/04/02 09:05:45;;;;;;;3.08;1.02;;;15.80;18.30;;;;;;6193378;28;20473;-79
2024/04/02 09:08:46;;;;;;;3.15;1.00;;;15.90;1.00;;;;;;6191311;28;20058;-79
2024/04/02 09:11:47;;;;;;;4.13;1.20;;;15.30;1.00;;;;;;6193669;28;20072;-78
2024/04/02 09:14:48;;;;;;;4.30;1.00;;;14.90;10.40;;;;;;6172303;28;20068;-79
2024/04/02 09:17:48;;;;;;;2.83;1.00;;;14.50;1.00;;;;;;6193529;28;20058;-80
2024/04/02 09:20:49;;;;;;;2.58;0.93;;;14.00;1.80;;;;;;6193003;28;20065;-78
2024/04/02 09:23:50;;;;;;;4.88;1.48;;;14.10;14.30;;;;;;6193195;28;20058;-79
2024/04/02 09:26:50;;;;;;;3.78;1.27;;;13.90;18.50;;;;;;6192976;28;20069;-79
2024/04/02 09:29:54;;;;;;;3.90;1.23;;;13.80;19.60;;;;;;6177970;28;20058;-79
2024/04/02 09:32:54;;;;;;;4.28;1.20;;;13.60;13.20;;;;;;6192864;28;20066;-79
2024/04/02 09:35:55;;;;;;;3.75;1.30;;;13.50;23.90;;;;;;6192776;28;20478;-79
2024/04/02 09:38:56;;;;;;;3.45;1.23;;;13.80;29.10;;;;;;6192952;28;20057;-79
2024/04/02 09:41:56;;;;;;;4.90;1.27;;;14.10;15.80;;;;;;6194621;28;20058;-79
2024/04/02 09:44:57;;;;;;;5.35;1.42;;;14.30;29.80;;;;;;6197207;28;20068;-79
2024/04/02 09:47:59;;;;;;;5.38;1.55;;;14.30;13.60;;;;;;6197453;28;20054;-79
2024/04/02 09:51:00;;;;;;;4.05;1.17;;;14.20;3.70;;;;;;6197467;28;20061;-79
2024/04/02 09:54:00;;;;;;;6.40;1.08;;;14.50;9.90;;;;;;6197283;28;20461;-79
2024/04/02 09:57:01;;;;;;;4.07;1.20;;;15.10;6.20;;;;;;6197251;28;20069;-79
2024/04/02 10:00:02;;;;;;;2.65;1.00;;;15.30;1.00;;;;;;6191787;28;20086;-79
2024/04/02 10:03:02;;;;;;;3.70;1.05;;;15.10;1.00;;;;;;6197441;28;20471;-79
2024/04/02 10:06:03;;;;;;;3.05;1.13;;;14.90;1.00;;;;;;6197147;28;20060;-79
2024/04/02 10:09:04;;;;;;;2.45;0.88;;;15.00;1.00;;;;;;6195254;28;20054;-80
2024/04/02 10:12:04;;;;;;;2.85;0.93;;;15.40;1.00;;;;;;6197313;28;20576;-79
2024/04/02 10:15:05;;;;;;;3.63;1.20;;;15.00;1.00;;;;;;6187283;28;20202;-80
2024/04/02 10:18:06;;;;;;;5.20;1.20;;;15.30;1.00;;;;;;6196828;28;20418;-80
2024/04/02 10:21:07;;;;;;;3.90;1.20;;;15.30;1.00;;;;;;6196882;28;20050;-80
2024/04/02 10:24:08;;;;;;;7.07;1.50;;;15.20;1.00;;;;;;6180637;28;20065;-79
2024/04/02 10:27:09;;;;;;;3.92;1.40;;;15.00;1.00;;;;;;6196591;28;20065;-80
2024/04/02 10:30:09;;;;;;;5.15;1.50;;;15.50;1.00;;;;;;6170313;28;20058;-80
2024/04/02 10:33:10;;;;;;;3.20;1.40;;;15.60;1.00;;;;;;6196404;28;20550;-80
2024/04/02 10:36:11;;;;;;;2.22;1.00;;;16.30;1.00;;;;;;6196157;28;20058;-80
2024/04/02 10:39:12;;;;;;;4.32;1.38;;;16.70;1.00;;;;;;6196364;28;20050;-80
2024/04/02 10:42:12;;;;;;;3.97;1.20;;;17.00;1.00;;;;;;6180302;28;20149;-77
2024/04/02 10:45:13;;;;;;;3.75;1.10;;;17.10;1.00;;;;;;6190563;28;20062;-79
2024/04/02 10:48:14;;;;;;;3.70;1.00;;;17.30;1.00;;;;;;6180008;28;20054;-80
2024/04/02 10:51:15;;;;;;;5.35;1.20;;;17.80;1.00;;;;;;6196069;28;20140;-79
2024/04/02 10:54:16;;;;;;;3.75;1.10;;;19.00;1.00;;;;;;6180544;28;20137;-79
2024/04/02 10:57:17;;;;;;;6.65;1.10;;;19.30;1.00;;;;;;6195895;28;20548;-80
2024/04/02 11:00:18;;;;;;;3.55;1.20;;;19.60;1.00;;;;;;6185801;28;20076;-80
2024/04/02 11:03:19;;;;;;;2.40;1.15;;;19.70;1.00;;;;;;6196059;28;20054;-80
2024/04/02 11:06:19;;;;;;;3.30;0.80;;;20.00;1.00;;;;;;6194247;28;20525;-79
2024/04/02 11:09:20;;;;;;;3.13;0.90;;;20.40;1.00;;;;;;6180109;28;20062;-80
2024/04/02 11:12:21;;;;;;;2.05;1.00;;;20.30;1.00;;;;;;6197673;28;20090;-80
2024/04/02 11:15:21;;;;;;;2.75;0.80;;;20.40;1.00;;;;;;6175550;28;20065;-79
2024/04/02 11:18:22;;;;;;;2.75;0.95;;;19.70;1.00;;;;;;6196712;28;20050;-80
2024/04/02 11:21:24;;;;;;;2.65;0.82;;;20.30;1.00;;;;;;6181988;28;20109;-80
2024/04/02 11:27:44;;;;;;;2.40;0.90;;;19.20;1.00;;;;;;6171852;28;20055;-79
2024/04/02 11:30:45;;;;;;;2.20;0.80;;;19.30;1.00;;;;;;6186098;28;20145;-80
2024/04/02 11:33:46;;;;;;;2.42;0.90;;;19.20;1.00;;;;;;6195315;28;20399;-80
2024/04/02 11:36:46;;;;;;;2.72;0.80;;;18.80;1.00;;;;;;6195913;28;20418;-80
2024/04/02 11:39:47;;;;;;;2.92;0.98;;;19.60;1.00;;;;;;6179389;28;20129;-80
2024/04/02 11:42:48;;;;;;;3.05;0.70;;;20.50;1.00;;;;;;6195000;28;20524;-79
2024/04/02 11:45:48;;;;;;;3.13;1.00;;;20.00;1.00;;;;;;6194246;28;20058;-79
2024/04/02 11:48:49;;;;;;;2.30;0.65;;;18.90;1.00;;;;;;6194637;28;20060;-80
2024/04/02 11:51:50;;;;;;;3.88;0.88;;;18.10;1.00;;;;;;6194760;28;20054;-82
2024/04/02 11:54:51;;;;;;;4.30;1.00;;;18.20;1.00;;;;;;6194465;28;20421;-79
2024/04/02 12:01:12;;;;;;;4.22;0.90;;;17.30;1.00;;;;;;6165911;28;20050;-79
2024/04/02 12:04:13;;;;;;;3.17;0.93;;;17.20;1.00;;;;;;6170025;28;20141;-78
2024/04/02 12:07:14;;;;;;;2.60;0.80;;;17.10;1.00;;;;;;6175940;28;20058;-78
2024/04/02 12:10:15;;;;;;;2.92;0.70;;;17.00;1.00;;;;;;6193964;28;20069;-79
2024/04/02 12:13:16;;;;;;;3.53;0.80;;;17.40;1.00;;;;;;6176215;28;20058;-78
2024/04/02 12:16:17;;;;;;;3.35;0.80;;;17.40;1.00;;;;;;6194565;28;20070;-80
2024/04/02 12:19:18;;;;;;;2.97;0.60;;;18.10;1.00;;;;;;6169858;28;20073;-79
2024/04/02 12:22:18;;;;;;;2.28;0.73;;;17.30;1.00;;;;;;6193119;28;20186;-76
2024/04/02 12:25:19;;;;;;;2.95;0.98;;;16.80;1.00;;;;;;6177901;28;20046;-78
2024/04/02 12:28:19;;;;;;;2.83;0.82;;;16.40;1.00;;;;;;6188435;28;20054;-79
2024/04/02 12:31:20;;;;;;;2.72;0.80;;;16.40;1.00;;;;;;6178140;28;20058;-78
2024/04/02 12:34:22;;;;;;;2.22;0.80;;;17.10;1.00;;;;;;6170171;28;20495;-78
2024/04/02 12:37:23;;;;;;;3.85;0.80;;;17.50;1.00;;;;;;6193621;28;20132;-78
2024/04/02 12:40:23;;;;;;;3.63;0.93;;;17.20;1.00;;;;;;6193800;28;20062;-79
2024/04/02 12:43:24;;;;;;;3.38;0.90;;;18.30;1.00;;;;;;6179130;28;20486;-79
2024/04/02 12:46:25;;;;;;;2.75;0.77;;;18.50;1.00;;;;;;6193418;28;20062;-79
2024/04/02 12:49:26;;;;;;;3.65;0.85;;;18.70;1.00;;;;;;6193380;28;20120;-79
2024/04/02 12:52:27;;;;;;;2.97;0.80;;;18.20;1.00;;;;;;6193584;28;20058;-78
2024/04/02 12:55:28;;;;;;;3.10;0.70;;;18.20;1.00;;;;;;6194052;28;20469;-78
2024/04/02 12:58:29;;;;;;;2.67;0.70;;;17.90;1.00;;;;;;6188219;28;20193;-79
2024/04/02 13:01:29;;;;;;;4.15;0.70;;;18.00;1.00;;;;;;6193607;28;20608;-78
2024/04/02 13:04:30;;;;;;;2.28;0.60;;;18.30;1.00;;;;;;6193659;28;20062;-79
2024/04/02 13:07:31;;;;;;;3.00;0.80;;;18.70;1.00;;;;;;6191712;28;20093;-79
2024/04/02 13:10:31;;;;;;;2.50;0.70;;;17.90;1.00;;;;;;6193415;28;20061;-79
2024/04/02 13:13:32;;;;;;;2.35;0.77;;;17.70;1.00;;;;;;6188245;28;20703;-78
2024/04/02 13:16:33;;;;;;;3.85;0.80;;;17.50;1.00;;;;;;6193944;28;20064;-78
2024/04/02 13:19:33;;;;;;;2.97;0.90;;;17.40;1.00;;;;;;6198052;28;20058;-79
2024/04/02 13:22:34;;;;;;;4.07;0.80;;;17.60;1.00;;;;;;6197740;28;20414;-79
2024/04/02 13:25:35;;;;;;;3.35;0.93;;;17.10;1.00;;;;;;6198928;28;20057;-79
2024/04/02 13:28:36;;;;;;;3.33;1.00;;;17.00;1.00;;;;;;6187683;28;20613;-79
2024/04/02 13:31:36;;;;;;;4.32;0.93;;;16.80;1.00;;;;;;6182785;28;20457;-79
2024/04/02 13:34:37;;;;;;;2.65;0.77;;;16.80;1.00;;;;;;6197133;28;20068;-79
2024/04/02 13:37:38;;;;;;;2.53;0.63;;;17.40;1.00;;;;;;6198396;28;20061;-80
2024/04/02 13:40:39;;;;;;;2.47;0.73;;;18.10;1.00;;;;;;6197919;28;20054;-80
2024/04/02 13:43:40;;;;;;;2.70;0.70;;;18.00;1.00;;;;;;6182418;28;20425;-81
2024/04/02 13:46:40;;;;;;;3.55;0.70;;;18.70;1.00;;;;;;6197450;28;20157;-81
2024/04/02 13:49:41;;;;;;;3.28;0.80;;;19.00;1.00;;;;;;6197281;28;20616;-78
2024/04/02 13:52:42;;;;;;;3.17;0.80;;;19.20;1.00;;;;;;6197819;28;20137;-80
2024/04/02 13:55:43;;;;;;;4.40;0.98;;;18.90;1.00;;;;;;6198360;28;20097;-78
2024/04/02 13:58:44;;;;;;;3.58;0.70;;;18.70;1.00;;;;;;6180808;28;20136;-80
2024/04/02 14:01:47;;;;;;;3.35;0.88;;;18.30;1.00;;;;;;6197253;28;20066;-80
2024/04/02 14:04:47;;;;;;;2.60;0.70;;;17.90;1.00;;;;;;6197205;28;20058;-80
2024/04/02 14:07:52;;;;;;;4.72;0.90;;;17.60;1.00;;;;;;6195295;28;20116;-80
2024/04/02 14:10:53;;;;;;;3.30;0.93;;;17.40;1.00;;;;;;6196762;28;20434;-80
2024/04/02 14:13:54;;;;;;;3.67;0.70;;;17.50;1.00;;;;;;6182049;28;20062;-80
2024/04/02 14:16:54;;;;;;;4.07;0.80;;;17.30;1.00;;;;;;6196771;28;20501;-79
2024/04/02 14:19:55;;;;;;;2.33;0.70;;;17.00;1.00;;;;;;6196438;28;20058;-79
2024/04/02 14:22:56;;;;;;;5.57;0.90;;;16.80;1.00;;;;;;6196843;28;20065;-79
2024/04/02 14:25:57;;;;;;;2.65;0.60;;;16.60;1.00;;;;;;6196666;28;20099;-79
2024/04/02 14:28:57;;;;;;;2.90;0.60;;;16.50;1.00;;;;;;6190486;28;20064;-78
2024/04/02 14:31:58;;;;;;;3.72;0.90;;;16.50;1.00;;;;;;6196426;28;20470;-78
2024/04/02 14:34:59;;;;;;;8.40;1.10;;;16.70;1.00;;;;;;6180388;28;20061;-77
2024/04/02 14:38:00;;;;;;;6.13;1.30;;;16.60;1.00;;;;;;6180291;28;20481;-78
2024/04/02 14:41:00;;;;;;;7.88;1.25;;;16.30;1.00;;;;;;6196441;28;20058;-80
2024/04/02 14:44:01;;;;;;;6.53;1.52;;;16.00;1.00;;;;;;6169167;28;20054;-80
2024/04/02 14:47:01;;;;;;;7.38;1.50;;;16.10;1.00;;;;;;6196639;28;20054;-80
2024/04/02 14:50:04;;;;;;;8.23;1.67;;;16.00;1.00;;;;;;6196090;28;20065;-80
2024/04/02 14:53:04;;;;;;;8.68;1.45;;;15.80;1.00;;;;;;6196423;28;20060;-80
2024/04/02 14:56:05;;;;;;;8.60;1.60;;;15.50;1.00;;;;;;6196370;28;20054;-80
2024/04/02 14:59:05;;;;;;;9.00;2.13;;;15.40;1.00;;;;;;6174340;28;20739;-78
2024/04/02 15:02:08;;;;;;;10.93;1.70;;;15.50;1.00;;;;;;6195451;28;20058;-78
2024/04/02 15:05:09;;;;;;;11.77;1.98;;;15.40;1.00;;;;;;6179780;28;20050;-78
2024/04/02 15:08:09;;;;;;;7.85;1.63;;;15.50;1.00;;;;;;6193837;28;20469;-78
2024/04/02 15:11:10;;;;;;;6.82;1.80;;;15.30;1.00;;;;;;6195688;28;20133;-78
2024/04/02 15:14:11;;;;;;;9.55;1.98;;;15.20;1.00;;;;;;6195304;28;20521;-79
2024/04/02 15:17:11;;;;;;;9.43;1.70;;;15.20;1.00;;;;;;6195544;28;20058;-80
2024/04/02 15:20:12;;;;;;;10.35;2.08;;;15.10;1.00;;;;;;6195409;28;20058;-80
2024/04/02 15:23:13;;;;;;;13.73;2.72;;;15.00;1.00;;;;;;6195873;28;20062;-79
2024/04/02 15:26:13;;;;;;;16.63;2.83;;;14.80;1.00;;;;;;6195716;28;20050;-78
2024/04/02 15:29:14;;;;;;;14.90;2.75;;;14.80;1.00;;;;;;6189555;28;20054;-79
2024/04/02 15:32:15;;;;;;;12.18;2.25;;;14.70;1.00;;;;;;6194934;28;20065;-79
2024/04/02 15:35:15;;;;;;;12.68;2.40;;;14.60;1.00;;;;;;6195388;28;20065;-79
2024/04/02 15:38:16;;;;;;;13.35;2.50;;;14.40;1.00;;;;;;6195009;28;20058;-78
2024/04/02 15:41:17;;;;;;;15.48;2.53;;;14.40;1.00;;;;;;6176508;28;20050;-78
2024/04/02 15:44:17;;;;;;;17.60;2.97;;;14.30;1.00;;;;;;6187526;28;20433;-79
2024/04/02 15:47:18;;;;;;;17.60;2.80;;;14.10;1.00;;;;;;6195850;28;20078;-79
2024/04/02 15:50:18;;;;;;;14.95;2.65;;;14.00;1.00;;;;;;6194809;28;20065;-80